Time;durP1;ratioP1;P1;durP2;ratioP2;P2;SDS_P1;SDS_P2;PMS_P1;PMS_P2;Temp;Humidity;BMP_temperature;BMP_pressure;BME280_temperature;BME280_humidity;BME280_pressure;Samples;Min_cycle;Max_cycle;Signal;HPM_P1;HPM_P2
2022/06/26 00:01:42;;;;;;;;;;;22.40;73.40;;;;;;5058759;28;19942;-78
2022/06/26 00:04:08;;;;;;;;;;;22.40;73.40;;;;;;5052865;28;19952;-78
2022/06/26 00:06:33;;;;;;;;;;;22.40;73.50;;;;;;5050006;28;19948;-78
2022/06/26 00:08:59;;;;;;;;;;;22.30;73.40;;;;;;5061547;28;19959;-78
2022/06/26 00:11:24;;;;;;;;;;;22.40;73.50;;;;;;5055543;28;19912;-78
2022/06/26 00:13:50;;;;;;;;;;;22.30;73.60;;;;;;5062478;28;19912;-78
2022/06/26 00:16:15;;;;;;;;;;;22.30;73.60;;;;;;5058681;28;19917;-78
2022/06/26 00:18:41;;;;;;;;;;;22.30;73.60;;;;;;5057186;28;19977;-78
2022/06/26 00:21:07;;;;;;;;;;;22.20;73.50;;;;;;5052452;28;19948;-78
2022/06/26 00:23:34;;;;;;;;;;;22.20;73.50;;;;;;5061940;28;20011;-75
2022/06/26 00:26:00;;;;;;;;;;;22.20;73.70;;;;;;5063548;28;19919;-75
2022/06/26 00:28:25;;;;;;;;;;;22.20;73.90;;;;;;5062533;28;19912;-78
2022/06/26 00:30:51;;;;;;;;;;;22.20;73.90;;;;;;5056550;28;19923;-78
2022/06/26 00:33:16;;;;;;;;;;;22.10;73.90;;;;;;5055934;28;19999;-78
2022/06/26 00:35:42;;;;;;;;;;;22.10;73.90;;;;;;5055094;28;20511;-77
2022/06/26 00:38:07;;;;;;;;;;;22.10;74.10;;;;;;5062192;28;20669;-78
2022/06/26 00:40:33;;;;;;;;;;;22.10;74.00;;;;;;5050976;28;19919;-78
2022/06/26 00:42:58;;;;;;;;;;;22.10;74.10;;;;;;5058085;28;19920;-78
2022/06/26 00:45:24;;;;;;;;;;;22.10;73.80;;;;;;5053946;28;20357;-78
2022/06/26 00:47:49;;;;;;;;;;;22.10;74.20;;;;;;5053966;28;20468;-78
2022/06/26 00:50:15;;;;;;;;;;;22.00;74.00;;;;;;5055274;28;19916;-78
2022/06/26 00:52:41;;;;;;;;;;;22.00;73.90;;;;;;5051580;28;20022;-78
2022/06/26 00:55:10;;;;;;;;;;;22.00;74.20;;;;;;5052484;28;20102;-78
2022/06/26 00:57:36;;;;;;;;;;;22.00;74.30;;;;;;5050832;28;20357;-78
2022/06/26 01:00:04;;;;;;;;;;;22.00;74.00;;;;;;5048288;28;19913;-75
2022/06/26 01:02:30;;;;;;;;;;;22.00;73.90;;;;;;5063574;28;19912;-78
2022/06/26 01:04:55;;;;;;;;;;;22.00;74.30;;;;;;5048154;28;19958;-78
2022/06/26 01:07:21;;;;;;;;;;;21.90;74.90;;;;;;5060351;28;20285;-77
2022/06/26 01:09:46;;;;;;;;;;;21.90;74.30;;;;;;5062610;28;20430;-78
2022/06/26 01:12:12;;;;;;;;;;;21.90;74.40;;;;;;5057686;28;20620;-78
2022/06/26 01:14:38;;;;;;;;;;;21.90;74.50;;;;;;5055419;28;20606;-78
2022/06/26 01:17:04;;;;;;;;;;;21.90;74.70;;;;;;5062472;28;19913;-78
2022/06/26 01:19:30;;;;;;;;;;;21.90;74.50;;;;;;5053327;28;19980;-78
2022/06/26 01:21:55;;;;;;;;;;;21.80;74.50;;;;;;5061354;28;19927;-78
2022/06/26 01:24:21;;;;;;;;;;;21.80;74.40;;;;;;5051277;28;19920;-78
2022/06/26 01:26:47;;;;;;;;;;;21.80;74.50;;;;;;5063566;28;19912;-78
2022/06/26 01:29:12;;;;;;;;;;;21.70;74.80;;;;;;5045183;28;19927;-78
2022/06/26 01:31:38;;;;;;;;;;;21.80;74.90;;;;;;5050023;28;19913;-78
2022/06/26 01:34:04;;;;;;;;;;;21.80;74.70;;;;;;5058979;28;19951;-78
2022/06/26 01:36:30;;;;;;;;;;;21.80;74.70;;;;;;5050966;28;20023;-78
2022/06/26 01:38:56;;;;;;;;;;;21.80;75.00;;;;;;5051948;28;20011;-78
2022/06/26 01:41:21;;;;;;;;;;;21.70;75.20;;;;;;5054985;28;20563;-78
2022/06/26 01:43:47;;;;;;;;;;;21.70;75.30;;;;;;5045704;28;20578;-78
2022/06/26 01:46:12;;;;;;;;;;;21.70;75.40;;;;;;5041464;28;20385;-78
2022/06/26 01:48:38;;;;;;;;;;;21.60;75.40;;;;;;5043064;28;19967;-78
2022/06/26 01:51:04;;;;;;;;;;;21.60;75.50;;;;;;5042981;28;20584;-78
2022/06/26 01:53:30;;;;;;;;;;;21.60;75.30;;;;;;5047057;28;19913;-78
2022/06/26 01:55:55;;;;;;;;;;;21.60;75.30;;;;;;5055646;28;19920;-78
2022/06/26 01:58:21;;;;;;;;;;;21.60;75.70;;;;;;5059740;28;19924;-75
2022/06/26 02:00:47;;;;;;;;;;;21.50;75.70;;;;;;5066066;28;20008;-78
2022/06/26 02:03:14;;;;;;;;;;;21.50;75.70;;;;;;5062910;28;20602;-78
2022/06/26 02:05:40;;;;;;;;;;;21.50;75.80;;;;;;5061592;28;19913;-78
2022/06/26 02:08:06;;;;;;;;;;;21.50;75.90;;;;;;5052009;28;19913;-78
2022/06/26 02:16:00;;;;;;;;;;;21.40;76.20;;;;;;5057160;28;20005;-78
2022/06/26 02:18:26;;;;;;;;;;;21.40;76.10;;;;;;5051359;28;19987;-78
2022/06/26 02:20:52;;;;;;;;;;;21.30;76.10;;;;;;5047350;28;19917;-78
2022/06/26 02:23:18;;;;;;;;;;;21.30;76.20;;;;;;5060735;28;19919;-78
2022/06/26 02:25:43;;;;;;;;;;;21.30;76.50;;;;;;5052551;28;19982;-78
2022/06/26 02:28:09;;;;;;;;;;;21.30;76.60;;;;;;5061300;28;19912;-78
2022/06/26 02:30:35;;;;;;;;;;;21.30;76.50;;;;;;5055778;28;19920;-78
2022/06/26 02:33:00;;;;;;;;;;;21.30;76.70;;;;;;5055444;28;20358;-78
2022/06/26 02:35:27;;;;;;;;;;;21.20;76.50;;;;;;5057552;28;19909;-78
2022/06/26 02:37:54;;;;;;;;;;;21.20;76.50;;;;;;5051287;28;20044;-78
2022/06/26 02:40:20;;;;;;;;;;;21.20;76.30;;;;;;5048480;28;20023;-78
2022/06/26 02:42:46;;;;;;;;;;;21.20;76.60;;;;;;5046984;28;19958;-78
2022/06/26 02:45:12;;;;;;;;;;;21.10;76.60;;;;;;5045552;28;19929;-78
2022/06/26 02:47:38;;;;;;;;;;;21.10;76.60;;;;;;5061705;28;19917;-78
2022/06/26 02:50:03;;;;;;;;;;;21.10;76.80;;;;;;5045970;28;20445;-78
2022/06/26 02:52:29;;;;;;;;;;;21.10;76.80;;;;;;5046230;28;19943;-77
2022/06/26 02:54:55;;;;;;;;;;;21.10;77.00;;;;;;5051106;28;19958;-78
2022/06/26 02:57:20;;;;;;;;;;;21.10;77.00;;;;;;5050488;28;19965;-78
2022/06/26 02:59:46;;;;;;;;;;;21.00;76.70;;;;;;5056687;28;19927;-78
2022/06/26 03:02:11;;;;;;;;;;;21.00;76.80;;;;;;5055617;28;20662;-78
2022/06/26 03:04:37;;;;;;;;;;;21.00;77.10;;;;;;5054683;28;19913;-78
2022/06/26 03:07:02;;;;;;;;;;;21.00;77.20;;;;;;5056192;28;19923;-78
2022/06/26 03:09:28;;;;;;;;;;;21.00;77.10;;;;;;5064913;28;19959;-78
2022/06/26 03:11:53;;;;;;;;;;;21.00;77.20;;;;;;5064976;28;19913;-78
2022/06/26 03:14:19;;;;;;;;;;;20.90;77.00;;;;;;5060447;28;20012;-78
2022/06/26 03:16:44;;;;;;;;;;;20.90;77.20;;;;;;5061479;28;19912;-78
2022/06/26 03:19:10;;;;;;;;;;;20.90;77.30;;;;;;5055137;28;20277;-78
2022/06/26 03:21:35;;;;;;;;;;;20.90;77.40;;;;;;5055974;28;20274;-78
2022/06/26 03:24:01;;;;;;;;;;;20.90;77.60;;;;;;5056309;28;20476;-78
2022/06/26 03:26:27;;;;;;;;;;;20.90;77.60;;;;;;5045683;28;19909;-78
2022/06/26 03:28:52;;;;;;;;;;;20.80;77.70;;;;;;5047336;28;20016;-78
2022/06/26 03:31:18;;;;;;;;;;;20.80;78.00;;;;;;5055119;28;20716;-78
2022/06/26 03:33:43;;;;;;;;;;;20.80;77.60;;;;;;5062219;28;19965;-78
2022/06/26 03:36:09;;;;;;;;;;;20.80;77.60;;;;;;5065710;28;19913;-78
2022/06/26 03:38:35;;;;;;;;;;;20.80;77.90;;;;;;5059812;28;20624;-78
2022/06/26 03:41:00;;;;;;;;;;;20.80;78.00;;;;;;5063741;28;20163;-78
2022/06/26 03:43:26;;;;;;;;;;;20.70;77.70;;;;;;5052175;28;20703;-78
2022/06/26 03:45:51;;;;;;;;;;;20.70;77.60;;;;;;5047459;28;20280;-78
2022/06/26 03:48:17;;;;;;;;;;;20.70;77.60;;;;;;5063251;28;19944;-78
2022/06/26 03:50:43;;;;;;;;;;;20.70;78.00;;;;;;5065389;28;20662;-78
2022/06/26 03:53:08;;;;;;;;;;;20.70;78.00;;;;;;5064762;28;19927;-78
2022/06/26 03:55:34;;;;;;;;;;;20.70;78.10;;;;;;5046618;28;19936;-78
2022/06/26 03:58:00;;;;;;;;;;;20.60;77.90;;;;;;5060896;28;20000;-78
2022/06/26 04:00:25;;;;;;;;;;;20.60;78.10;;;;;;5064891;28;19952;-78
2022/06/26 04:02:51;;;;;;;;;;;20.60;78.00;;;;;;5062581;28;19913;-78
2022/06/26 04:05:16;;;;;;;;;;;20.60;78.10;;;;;;5059190;28;19913;-78
2022/06/26 04:07:42;;;;;;;;;;;20.60;77.90;;;;;;5049680;28;19928;-78
2022/06/26 04:10:07;;;;;;;;;;;20.60;77.80;;;;;;5056286;28;19928;-78
2022/06/26 04:12:33;;;;;;;;;;;20.60;78.20;;;;;;5054751;28;19935;-78
2022/06/26 04:14:58;;;;;;;;;;;20.60;78.10;;;;;;5048707;28;19919;-78
2022/06/26 04:17:24;;;;;;;;;;;20.60;78.10;;;;;;5045700;28;19916;-74
2022/06/26 04:19:49;;;;;;;;;;;20.60;78.10;;;;;;5044724;28;20588;-74
2022/06/26 04:22:15;;;;;;;;;;;20.60;78.30;;;;;;5063787;28;19919;-74
2022/06/26 04:24:40;;;;;;;;;;;20.60;79.00;;;;;;5063892;28;20311;-74
2022/06/26 04:27:06;;;;;;;;;;;20.60;78.40;;;;;;5061323;28;20525;-74
2022/06/26 04:29:32;;;;;;;;;;;20.60;78.20;;;;;;5045105;28;19925;-74
2022/06/26 04:31:57;;;;;;;;;;;20.60;78.40;;;;;;5061634;28;19919;-74
2022/06/26 04:34:23;;;;;;;;;;;20.60;78.50;;;;;;5060565;28;20349;-78
2022/06/26 04:36:48;;;;;;;;;;;20.60;78.60;;;;;;5059179;28;19940;-78
2022/06/26 04:39:14;;;;;;;;;;;20.60;78.60;;;;;;5056264;28;20031;-78
2022/06/26 04:41:39;;;;;;;;;;;20.60;78.50;;;;;;5047923;28;20430;-78
2022/06/26 04:44:08;;;;;;;;;;;20.60;78.50;;;;;;5050613;28;19924;-77
2022/06/26 04:46:35;;;;;;;;;;;20.60;78.40;;;;;;5060464;28;19966;-78
2022/06/26 04:49:00;;;;;;;;;;;20.60;78.50;;;;;;5079510;28;20613;-78
2022/06/26 04:51:26;;;;;;;;;;;20.60;78.50;;;;;;5044725;28;19992;-78
2022/06/26 04:53:51;;;;;;;;;;;20.60;78.50;;;;;;5043633;28;20817;-78
2022/06/26 04:56:17;;;;;;;;;;;20.60;78.40;;;;;;5042872;28;20529;-78
2022/06/26 04:58:42;;;;;;;;;;;20.60;78.60;;;;;;5060914;28;19912;-78
2022/06/26 05:01:08;;;;;;;;;;;20.60;79.10;;;;;;5060965;28;19950;-78
2022/06/26 05:03:34;;;;;;;;;;;20.60;78.60;;;;;;5067537;28;19959;-74
2022/06/26 05:05:59;;;;;;;;;;;20.60;78.50;;;;;;5063054;28;19969;-75
2022/06/26 05:08:25;;;;;;;;;;;20.60;78.60;;;;;;5060946;28;19912;-75
2022/06/26 05:10:50;;;;;;;;;;;20.60;78.20;;;;;;5063139;28;20003;-74
2022/06/26 05:13:16;;;;;;;;;;;20.60;78.30;;;;;;5063152;28;19919;-74
2022/06/26 05:15:41;;;;;;;;;;;20.60;78.30;;;;;;5044871;28;19917;-74
2022/06/26 05:18:07;;;;;;;;;;;20.70;78.20;;;;;;5050628;28;19917;-74
2022/06/26 05:20:33;;;;;;;;;;;20.70;78.30;;;;;;5045104;28;19978;-74
2022/06/26 05:22:58;;;;;;;;;;;20.70;78.30;;;;;;5044386;28;19959;-74
2022/06/26 05:25:24;;;;;;;;;;;20.70;78.20;;;;;;5044986;28;19928;-74
2022/06/26 05:27:49;;;;;;;;;;;20.70;78.20;;;;;;5044769;28;20431;-74
2022/06/26 05:30:15;;;;;;;;;;;20.70;78.20;;;;;;5048667;28;19923;-74
2022/06/26 05:32:40;;;;;;;;;;;20.70;78.20;;;;;;5061606;28;19913;-74
2022/06/26 05:35:06;;;;;;;;;;;20.70;78.20;;;;;;5053034;28;19916;-74
2022/06/26 05:37:32;;;;;;;;;;;20.70;78.20;;;;;;5065325;28;20015;-74
2022/06/26 05:39:57;;;;;;;;;;;20.70;78.30;;;;;;5051524;28;19978;-74
2022/06/26 05:42:23;;;;;;;;;;;20.70;78.30;;;;;;5049074;28;20496;-74
2022/06/26 05:44:48;;;;;;;;;;;20.70;78.30;;;;;;5048732;28;19916;-74
2022/06/26 05:47:14;;;;;;;;;;;20.70;78.40;;;;;;5048510;28;19975;-74
2022/06/26 05:49:39;;;;;;;;;;;20.70;78.30;;;;;;5050219;28;19939;-74
2022/06/26 05:52:05;;;;;;;;;;;20.70;78.60;;;;;;5050483;28;19913;-74
2022/06/26 05:54:31;;;;;;;;;;;20.70;78.80;;;;;;5048635;28;19923;-74
2022/06/26 05:56:57;;;;;;;;;;;20.60;78.50;;;;;;5048174;28;19909;-74
2022/06/26 05:59:22;;;;;;;;;;;20.70;78.50;;;;;;5052993;28;19913;-74
2022/06/26 06:01:48;;;;;;;;;;;20.70;78.50;;;;;;5049420;28;19919;-74
2022/06/26 06:04:14;;;;;;;;;;;20.70;78.60;;;;;;5055881;28;19920;-74
2022/06/26 06:06:39;;;;;;;;;;;20.70;78.30;;;;;;5050427;28;19916;-74
2022/06/26 06:09:05;;;;;;;;;;;20.70;78.20;;;;;;5050802;28;19931;-74
2022/06/26 06:11:31;;;;;;;;;;;20.70;78.20;;;;;;5051248;28;19966;-78
2022/06/26 06:13:56;;;;;;;;;;;20.70;78.30;;;;;;5051981;28;19913;-78
2022/06/26 06:16:22;;;;;;;;;;;20.70;78.20;;;;;;5065402;28;19916;-78
2022/06/26 06:18:47;;;;;;;;;;;20.70;78.30;;;;;;5062137;28;19920;-78
2022/06/26 06:21:13;;;;;;;;;;;20.70;78.30;;;;;;5051060;28;19973;-78
2022/06/26 06:23:38;;;;;;;;;;;20.70;78.30;;;;;;5060642;28;19967;-78
2022/06/26 06:26:04;;;;;;;;;;;20.70;78.30;;;;;;5067265;28;19999;-78
2022/06/26 06:28:30;;;;;;;;;;;20.70;78.30;;;;;;5062912;28;19925;-78
2022/06/26 06:30:55;;;;;;;;;;;20.70;78.20;;;;;;5056637;28;19920;-75
2022/06/26 06:33:21;;;;;;;;;;;20.70;78.30;;;;;;5055989;28;19912;-74
2022/06/26 06:35:48;;;;;;;;;;;20.70;78.20;;;;;;5047778;28;20365;-75
2022/06/26 06:38:14;;;;;;;;;;;20.70;78.30;;;;;;5051944;28;19912;-75
2022/06/26 06:40:40;;;;;;;;;;;20.70;78.20;;;;;;5058017;28;19924;-74
2022/06/26 06:43:09;;;;;;;;;;;20.70;78.20;;;;;;5063780;28;19959;-75
2022/06/26 06:45:34;;;;;;;;;;;20.70;78.20;;;;;;5065878;28;19920;-75
2022/06/26 06:48:00;;;;;;;;;;;20.70;78.20;;;;;;5065678;28;19939;-74
2022/06/26 06:50:25;;;;;;;;;;;20.70;78.30;;;;;;5065590;28;20025;-74
2022/06/26 06:52:51;;;;;;;;;;;20.80;78.30;;;;;;5065777;28;19923;-75
2022/06/26 06:55:16;;;;;;;;;;;20.80;78.10;;;;;;5065619;28;19948;-75
2022/06/26 06:57:42;;;;;;;;;;;20.80;77.90;;;;;;5056429;28;20022;-74
2022/06/26 07:00:08;;;;;;;;;;;20.90;78.00;;;;;;5048960;28;20374;-75
2022/06/26 07:02:36;;;;;;;;;;;20.80;77.90;;;;;;5068198;28;19912;-75
2022/06/26 07:05:01;;;;;;;;;;;20.90;78.00;;;;;;5061401;28;19926;-74
2022/06/26 07:07:27;;;;;;;;;;;20.90;77.80;;;;;;5063651;28;20392;-75
2022/06/26 07:09:52;;;;;;;;;;;20.90;78.00;;;;;;5065718;28;19994;-74
2022/06/26 07:12:18;;;;;;;;;;;20.90;77.80;;;;;;5065160;28;19913;-75
2022/06/26 07:14:43;;;;;;;;;;;20.90;77.60;;;;;;5052329;28;19990;-78
2022/06/26 07:17:09;;;;;;;;;;;20.90;77.60;;;;;;5053249;28;19912;-78
2022/06/26 07:19:34;;;;;;;;;;;20.90;77.60;;;;;;5052499;28;20368;-78
2022/06/26 07:22:00;;;;;;;;;;;20.90;77.50;;;;;;5060445;28;19913;-79
2022/06/26 07:24:26;;;;;;;;;;;20.90;77.40;;;;;;5062458;28;19922;-78
2022/06/26 07:26:51;;;;;;;;;;;21.00;77.20;;;;;;5053681;28;19917;-79
2022/06/26 07:29:17;;;;;;;;;;;21.00;77.20;;;;;;5056900;28;19978;-78
2022/06/26 07:31:42;;;;;;;;;;;21.00;77.30;;;;;;5052768;28;20619;-79
2022/06/26 07:34:15;;;;;;;;;;;21.00;77.20;;;;;;5049770;28;19912;-78
2022/06/26 07:36:41;;;;;;;;;;;21.00;77.30;;;;;;5048859;28;19913;-78
2022/06/26 07:39:07;;;;;;;;;;;21.00;77.20;;;;;;5054889;28;20600;-78
2022/06/26 07:41:33;;;;;;;;;;;21.00;77.20;;;;;;5061352;28;20004;-78
2022/06/26 07:44:00;;;;;;;;;;;21.00;77.00;;;;;;5054162;28;20023;-78
2022/06/26 07:46:25;;;;;;;;;;;20.90;76.70;;;;;;5059559;28;19921;-78
2022/06/26 07:48:51;;;;;;;;;;;21.00;76.10;;;;;;5061959;28;20437;-78
2022/06/26 07:51:16;;;;;;;;;;;21.00;76.10;;;;;;5054694;28;20323;-78
2022/06/26 07:53:42;;;;;;;;;;;21.00;76.50;;;;;;5050657;28;20431;-78
2022/06/26 07:56:07;;;;;;;;;;;21.00;76.30;;;;;;5052109;28;19913;-79
2022/06/26 07:58:33;;;;;;;;;;;20.90;76.40;;;;;;5059800;28;20712;-78
2022/06/26 08:00:58;;;;;;;;;;;20.90;76.10;;;;;;5052374;28;20003;-78
2022/06/26 08:03:24;;;;;;;;;;;20.90;76.30;;;;;;5061886;28;19912;-78
2022/06/26 08:05:49;;;;;;;;;;;21.00;76.30;;;;;;5056886;28;19951;-78
2022/06/26 08:08:15;;;;;;;;;;;21.00;76.30;;;;;;5058421;28;19948;-79
2022/06/26 08:10:41;;;;;;;;;;;20.90;76.40;;;;;;5046955;28;19978;-78
2022/06/26 08:13:07;;;;;;;;;;;21.00;76.30;;;;;;5053530;28;19987;-79
2022/06/26 08:15:32;;;;;;;;;;;20.90;76.30;;;;;;5060455;28;19999;-78
2022/06/26 08:17:58;;;;;;;;;;;20.90;75.90;;;;;;5058237;28;19916;-78
2022/06/26 08:20:24;;;;;;;;;;;21.00;76.30;;;;;;5056297;28;19916;-78
2022/06/26 08:22:49;;;;;;;;;;;21.00;76.00;;;;;;5063402;28;19920;-79
2022/06/26 08:25:15;;;;;;;;;;;21.00;75.80;;;;;;5048057;28;20478;-75
2022/06/26 08:27:41;;;;;;;;;;;21.00;75.90;;;;;;5044900;28;20015;-74
2022/06/26 08:30:07;;;;;;;;;;;21.00;75.80;;;;;;5061202;28;20020;-75
2022/06/26 08:32:32;;;;;;;;;;;21.00;75.70;;;;;;5059734;28;19920;-75
2022/06/26 08:34:58;;;;;;;;;;;21.00;75.70;;;;;;5056539;28;19920;-75
2022/06/26 08:37:23;;;;;;;;;;;21.10;75.40;;;;;;5059387;28;19919;-75
2022/06/26 08:39:49;;;;;;;;;;;21.10;75.30;;;;;;5058178;28;19912;-75
2022/06/26 08:42:15;;;;;;;;;;;21.20;75.50;;;;;;5059925;28;19913;-75
2022/06/26 08:44:44;;;;;;;;;;;21.20;75.30;;;;;;5045100;28;19927;-75
2022/06/26 08:47:10;;;;;;;;;;;21.20;75.10;;;;;;5047422;28;19948;-75
2022/06/26 08:49:36;;;;;;;;;;;21.20;75.10;;;;;;5045170;28;19978;-75
2022/06/26 08:52:02;;;;;;;;;;;21.20;75.20;;;;;;5044932;28;19920;-75
2022/06/26 08:54:30;;;;;;;;;;;21.30;75.20;;;;;;5043154;28;20670;-75
2022/06/26 08:56:57;;;;;;;;;;;21.30;75.20;;;;;;5044007;28;19912;-80
2022/06/26 08:59:23;;;;;;;;;;;21.30;75.10;;;;;;5045121;28;19998;-76
2022/06/26 09:01:48;;;;;;;;;;;21.30;74.90;;;;;;5045606;28;20621;-78
2022/06/26 09:04:14;;;;;;;;;;;21.30;74.50;;;;;;5064947;28;20393;-75
2022/06/26 09:06:41;;;;;;;;;;;21.40;74.80;;;;;;5044537;28;19913;-75
2022/06/26 09:09:12;;;;;;;;;;;21.40;74.60;;;;;;5044875;28;19995;-75
2022/06/26 09:11:39;;;;;;;;;;;21.40;74.20;;;;;;5058432;28;20007;-75
2022/06/26 09:14:04;;;;;;;;;;;21.50;74.50;;;;;;5061033;28;19966;-75
2022/06/26 09:16:31;;;;;;;;;;;21.50;74.40;;;;;;5062469;28;20003;-75
2022/06/26 09:19:05;;;;;;;;;;;21.50;74.40;;;;;;5060231;28;20635;-79
2022/06/26 09:21:30;;;;;;;;;;;21.60;74.30;;;;;;5053862;28;19948;-79
2022/06/26 09:23:56;;;;;;;;;;;21.60;74.30;;;;;;5053271;28;20006;-79
2022/06/26 09:26:21;;;;;;;;;;;21.60;74.10;;;;;;5044892;28;20522;-79
2022/06/26 09:28:47;;;;;;;;;;;21.60;74.20;;;;;;5044905;28;20103;-79
2022/06/26 09:31:18;;;;;;;;;;;21.60;74.20;;;;;;5055811;28;19923;-79
2022/06/26 09:33:43;;;;;;;;;;;21.60;74.20;;;;;;5052638;28;19975;-75
2022/06/26 09:36:13;;;;;;;;;;;21.60;74.10;;;;;;5045390;28;19921;-75
2022/06/26 09:38:38;;;;;;;;;;;21.70;74.00;;;;;;5051396;28;19917;-76
2022/06/26 09:41:06;;;;;;;;;;;21.80;73.90;;;;;;5063815;28;19938;-79
2022/06/26 09:43:31;;;;;;;;;;;21.80;73.90;;;;;;5050558;28;19924;-79
2022/06/26 09:45:58;;;;;;;;;;;21.80;73.80;;;;;;5056896;28;19940;-79
2022/06/26 09:48:26;;;;;;;;;;;21.80;73.80;;;;;;5057382;28;19914;-79
2022/06/26 09:50:52;;;;;;;;;;;21.90;73.70;;;;;;5055036;28;19943;-76
2022/06/26 09:53:19;;;;;;;;;;;21.90;73.60;;;;;;5057061;28;19920;-76
2022/06/26 09:55:45;;;;;;;;;;;21.90;73.50;;;;;;5060415;28;19913;-76
2022/06/26 09:58:11;;;;;;;;;;;22.00;73.50;;;;;;5060082;28;19916;-76
2022/06/26 10:00:37;;;;;;;;;;;22.00;73.30;;;;;;5058650;28;20533;-76
2022/06/26 10:08:41;;;;;;;;;;;22.00;73.30;;;;;;5026551;28;19916;-76
2022/06/26 10:11:07;;;;;;;;;;;22.10;73.30;;;;;;5058819;28;19921;-76
2022/06/26 10:13:34;;;;;;;;;;;22.10;73.30;;;;;;5059000;28;19924;-76
2022/06/26 10:16:11;;;;;;;;;;;22.10;73.20;;;;;;5058068;28;19999;-76
2022/06/26 10:18:40;;;;;;;;;;;22.20;73.20;;;;;;5064846;28;19908;-76
2022/06/26 10:21:10;;;;;;;;;;;22.20;73.20;;;;;;5063023;28;19967;-76
2022/06/26 10:23:36;;;;;;;;;;;22.20;73.20;;;;;;5054992;28;20551;-76
2022/06/26 10:26:18;;;;;;;;;;;22.20;73.10;;;;;;5046329;28;20330;-76
2022/06/26 10:28:59;;;;;;;;;;;22.30;73.00;;;;;;5053501;28;20571;-76
2022/06/26 10:31:25;;;;;;;;;;;22.30;73.00;;;;;;5061339;28;19917;-76
2022/06/26 10:33:50;;;;;;;;;;;22.40;72.80;;;;;;5050755;28;19938;-76
2022/06/26 10:36:25;;;;;;;;;;;22.50;72.60;;;;;;5046661;28;19935;-76
2022/06/26 10:38:51;;;;;;;;;;;22.60;72.50;;;;;;5050680;28;19923;-76
2022/06/26 10:44:03;;;;;;;;;;;22.60;72.40;;;;;;5050018;28;20157;-76
2022/06/26 10:46:39;;;;;;;;;;;22.60;72.40;;;;;;5046160;28;19924;-75
2022/06/26 10:49:06;;;;;;;;;;;22.60;72.70;;;;;;5046810;28;20004;-76
2022/06/26 10:51:31;;;;;;;;;;;22.60;72.80;;;;;;5046191;28;19944;-76
2022/06/26 10:53:57;;;;;;;;;;;22.60;72.90;;;;;;5046960;28;20477;-76
2022/06/26 10:56:22;;;;;;;;;;;22.60;73.10;;;;;;5050029;28;20372;-76
2022/06/26 10:58:48;;;;;;;;;;;22.50;73.00;;;;;;5064808;28;19947;-76
2022/06/26 11:01:14;;;;;;;;;;;22.50;73.10;;;;;;5061773;28;19916;-76
2022/06/26 11:03:41;;;;;;;;;;;22.50;73.20;;;;;;5060835;28;19920;-76
2022/06/26 11:06:10;;;;;;;;;;;22.50;73.20;;;;;;5064523;28;19962;-76
2022/06/26 11:08:38;;;;;;;;;;;22.50;73.30;;;;;;5063019;28;19912;-76
2022/06/26 11:11:03;;;;;;;;;;;22.50;73.20;;;;;;5056385;28;19916;-79
2022/06/26 11:13:29;;;;;;;;;;;22.50;73.20;;;;;;5045802;28;20378;-79
2022/06/26 11:15:54;;;;;;;;;;;22.60;73.20;;;;;;5060390;28;19913;-79
2022/06/26 11:18:20;;;;;;;;;;;22.60;73.10;;;;;;5057148;28;19916;-79
2022/06/26 11:20:46;;;;;;;;;;;22.60;73.00;;;;;;5057207;28;19959;-79
2022/06/26 11:23:23;;;;;;;;;;;22.60;72.90;;;;;;5064177;28;20273;-79
2022/06/26 11:25:50;;;;;;;;;;;22.70;72.80;;;;;;5056175;28;19919;-79
2022/06/26 11:28:16;;;;;;;;;;;22.70;72.80;;;;;;5057328;28;19920;-79
2022/06/26 11:30:42;;;;;;;;;;;22.70;72.70;;;;;;5056770;28;19947;-79
2022/06/26 11:33:08;;;;;;;;;;;22.80;72.50;;;;;;5047665;28;19909;-79
2022/06/26 11:35:34;;;;;;;;;;;22.90;72.20;;;;;;5056357;28;19999;-79
2022/06/26 11:38:13;;;;;;;;;;;23.00;72.10;;;;;;5047723;28;20011;-79
2022/06/26 11:40:39;;;;;;;;;;;23.10;71.90;;;;;;5048094;28;19973;-79
2022/06/26 11:43:05;;;;;;;;;;;23.20;71.50;;;;;;5064108;28;20018;-79
2022/06/26 11:45:32;;;;;;;;;;;23.30;71.30;;;;;;5055829;28;20464;-79
2022/06/26 11:47:58;;;;;;;;;;;23.30;71.10;;;;;;5043684;28;19912;-79
2022/06/26 11:50:27;;;;;;;;;;;23.40;71.00;;;;;;5046538;28;19920;-79
2022/06/26 11:52:53;;;;;;;;;;;23.40;70.90;;;;;;5061616;28;20581;-79
2022/06/26 11:55:19;;;;;;;;;;;23.50;70.90;;;;;;5063675;28;19912;-79
2022/06/26 11:57:45;;;;;;;;;;;23.50;70.70;;;;;;5062758;28;20292;-79
2022/06/26 12:00:12;;;;;;;;;;;23.60;70.60;;;;;;5046550;28;19912;-79
2022/06/26 12:02:42;;;;;;;;;;;23.70;70.40;;;;;;5063029;28;20353;-79
2022/06/26 12:05:07;;;;;;;;;;;23.80;70.20;;;;;;5051204;28;19913;-79
2022/06/26 12:07:40;;;;;;;;;;;23.80;70.00;;;;;;5059329;28;19912;-79
2022/06/26 12:10:06;;;;;;;;;;;23.80;70.00;;;;;;5045316;28;19970;-79
2022/06/26 12:12:32;;;;;;;;;;;23.90;70.60;;;;;;5044230;28;19920;-79
2022/06/26 12:14:57;;;;;;;;;;;23.90;70.10;;;;;;5043242;28;20372;-76
2022/06/26 12:17:24;;;;;;;;;;;23.90;70.20;;;;;;5044085;28;19915;-76
2022/06/26 12:19:49;;;;;;;;;;;23.80;70.20;;;;;;5044102;28;19913;-76
2022/06/26 12:22:25;;;;;;;;;;;23.80;70.40;;;;;;5044412;28;19912;-76
2022/06/26 12:24:51;;;;;;;;;;;23.80;70.50;;;;;;5048593;28;19916;-76
2022/06/26 12:27:16;;;;;;;;;;;23.80;70.70;;;;;;5044277;28;19916;-76
2022/06/26 12:29:42;;;;;;;;;;;23.80;70.80;;;;;;5050294;28;20011;-76
2022/06/26 12:32:07;;;;;;;;;;;23.70;70.90;;;;;;5062843;28;20078;-76
2022/06/26 12:34:32;;;;;;;;;;;23.70;70.90;;;;;;5044502;28;19990;-76
2022/06/26 12:36:58;;;;;;;;;;;23.60;71.00;;;;;;5044047;28;19920;-76
2022/06/26 12:39:23;;;;;;;;;;;23.60;71.10;;;;;;5058590;28;20795;-76
2022/06/26 12:41:49;;;;;;;;;;;23.60;71.20;;;;;;5058373;28;19924;-76
2022/06/26 12:44:15;;;;;;;;;;;23.60;71.30;;;;;;5044943;28;19989;-76
2022/06/26 12:46:40;;;;;;;;;;;23.60;71.30;;;;;;5044361;28;19920;-76
2022/06/26 12:49:06;;;;;;;;;;;23.60;71.50;;;;;;5044971;28;19913;-76
2022/06/26 12:51:32;;;;;;;;;;;23.60;71.50;;;;;;5045195;28;19913;-76
2022/06/26 12:53:57;;;;;;;;;;;23.50;71.50;;;;;;5049876;28;20528;-76
2022/06/26 12:56:23;;;;;;;;;;;23.50;71.60;;;;;;5060984;28;19913;-76
2022/06/26 12:58:49;;;;;;;;;;;23.50;71.60;;;;;;5059771;28;19918;-76
2022/06/26 13:01:14;;;;;;;;;;;23.50;71.70;;;;;;5059995;28;19912;-76
2022/06/26 13:03:40;;;;;;;;;;;23.40;71.80;;;;;;5055653;28;19916;-76
2022/06/26 13:06:05;;;;;;;;;;;23.40;71.80;;;;;;5056937;28;19947;-76
2022/06/26 13:08:31;;;;;;;;;;;23.40;71.80;;;;;;5059191;28;19917;-76
2022/06/26 13:11:22;;;;;;;;;;;23.40;71.80;;;;;;5061338;28;19921;-76
2022/06/26 13:13:43;;;;;;;;;;;23.40;72.00;;;;;;5044696;28;20373;-76
2022/06/26 13:16:08;;;;;;;;;;;23.40;72.10;;;;;;5053868;28;19919;-76
2022/06/26 13:18:34;;;;;;;;;;;23.30;72.10;;;;;;5042940;28;19986;-76
2022/06/26 13:20:59;;;;;;;;;;;23.30;72.20;;;;;;5043779;28;19916;-76
2022/06/26 13:23:25;;;;;;;;;;;23.20;72.30;;;;;;5043397;28;19952;-76
2022/06/26 13:25:50;;;;;;;;;;;23.20;72.40;;;;;;5045267;28;19916;-76
2022/06/26 13:28:16;;;;;;;;;;;23.10;72.50;;;;;;5047479;28;20568;-76
2022/06/26 13:30:41;;;;;;;;;;;23.10;72.60;;;;;;5050402;28;20336;-76
2022/06/26 13:33:07;;;;;;;;;;;23.10;72.60;;;;;;5057712;28;19962;-76
2022/06/26 13:35:33;;;;;;;;;;;23.10;72.60;;;;;;5044092;28;19944;-76
2022/06/26 13:37:58;;;;;;;;;;;23.10;72.70;;;;;;5047865;28;20388;-76
2022/06/26 13:40:24;;;;;;;;;;;23.10;72.90;;;;;;5043665;28;20432;-75
2022/06/26 13:42:50;;;;;;;;;;;23.10;72.90;;;;;;5062622;28;19912;-79
2022/06/26 13:45:15;;;;;;;;;;;23.10;72.80;;;;;;5061314;28;19968;-76
2022/06/26 13:47:42;;;;;;;;;;;23.20;73.00;;;;;;5046651;28;19916;-76
2022/06/26 13:50:09;;;;;;;;;;;23.20;73.00;;;;;;5045137;28;20349;-76
2022/06/26 13:52:34;;;;;;;;;;;23.20;73.00;;;;;;5044393;28;19919;-79
2022/06/26 13:55:00;;;;;;;;;;;23.20;73.20;;;;;;5045969;28;20011;-78
2022/06/26 13:57:25;;;;;;;;;;;23.20;73.10;;;;;;5054921;28;19919;-80
2022/06/26 13:59:50;;;;;;;;;;;23.20;73.20;;;;;;5054313;28;19923;-80
2022/06/26 14:02:16;;;;;;;;;;;23.20;73.20;;;;;;5058529;28;19966;-79
2022/06/26 14:04:42;;;;;;;;;;;23.20;73.20;;;;;;5057203;28;19971;-79
2022/06/26 14:07:07;;;;;;;;;;;23.20;73.10;;;;;;5050014;28;19913;-80
2022/06/26 14:09:34;;;;;;;;;;;23.30;73.00;;;;;;5048998;28;19916;-79
2022/06/26 14:11:59;;;;;;;;;;;23.30;73.00;;;;;;5046063;28;19981;-79
2022/06/26 14:14:25;;;;;;;;;;;23.30;72.90;;;;;;5047897;28;19913;-79
2022/06/26 14:16:51;;;;;;;;;;;23.40;72.80;;;;;;5063696;28;19948;-79
2022/06/26 14:19:16;;;;;;;;;;;23.40;72.80;;;;;;5050258;28;19923;-79
2022/06/26 14:21:41;;;;;;;;;;;23.40;73.50;;;;;;5056433;28;19921;-79
2022/06/26 14:26:51;;;;;;;;;;;23.40;72.80;;;;;;5064827;28;20272;-79